Airfield :
LOGIN :

Register | Disclaimer

   EN    FR    IT 

 










Legend :    VFR   Marginal VFR   IFR   Intensive IFR   Very Intensive IFR
Visi :
Ceiling :
>= 8 km
>= 3000ft
5 to 8 km
1000 to 3000 ft
1500m to 5 km
500 to 1000 ft
800 to 1500m
200 to 500 ft
< 800m
< 200 ft
Symbols :   Thunderstorms  Fog  Heavy snow  Heavy precipitations  Wind > 20 kt
SIGMETs :     Misc.  Thunderstorms  Icing  Turbulence  Mountain Waves  Volcanic Ashes







- Airport Elevation : 226 ft
- IATA code : BEX


EGUB - RAF Benson

CURRENT METAR :
  • 152250Z AUTO 00000KT 9999 // BKN170/// 13/11 Q1022

EXPIRED METARs :
  • 152150Z AUTO 21003KT 9999 // OVC180/// 16/14 Q1023
  • 152050Z AUTO 29001KT 9999 // BKN190/// 15/13 Q1023

TAF TAF EGUB
Valid from the 15 at 18:00 until the 16 at 12:00 UTC


151644Z 1518/1612 27005KT 9999 FEW045
PROB30
TEMPO 1603/1608 SCT012
BECMG 1608/1610 BKN012
PROB40
TEMPO 1608/1612 7000 -RADZ
ATIS : +44 1491-837766 (x7524)
No reported NOTAMs for that airfield.



MET'MAP, your aeronautical weather chart ! - Copyright ORBIFLY December 2007 - Disclaimer

ORBIFLY MET'MAP TEAM :

Programming & Development : Alexandra Zaïnal
Concept & Development : Baudouin d'Aumeries
Co-Development & Prog : Marc-Olivier Méhu
Technical & hardware support : Manuel Goepfert

Contact : metmap@orbifly.com




SOURCES & CREDITS :

   NOAA